sensor_id;sensor_type;location;lat;lon;timestamp;P1;durP1;ratioP1;P2;durP2;ratioP2
55222;SDS011;41090;48.632;12.428;2022-11-20T00:01:11;19.37;;;15.07;;
55222;SDS011;41090;48.632;12.428;2022-11-20T00:03:36;20.47;;;15.67;;
55222;SDS011;41090;48.632;12.428;2022-11-20T00:06:03;20.87;;;15.37;;
55222;SDS011;41090;48.632;12.428;2022-11-20T00:08:28;19.17;;;14.67;;
55222;SDS011;41090;48.632;12.428;2022-11-20T00:10:53;17.57;;;13.50;;
55222;SDS011;41090;48.632;12.428;2022-11-20T00:13:19;17.13;;;13.73;;
55222;SDS011;41090;48.632;12.428;2022-11-20T00:15:44;20.23;;;15.67;;
55222;SDS011;41090;48.632;12.428;2022-11-20T00:18:09;19.33;;;14.53;;
55222;SDS011;41090;48.632;12.428;2022-11-20T00:20:34;18.93;;;14.63;;
55222;SDS011;41090;48.632;12.428;2022-11-20T00:23:00;19.77;;;15.00;;
55222;SDS011;41090;48.632;12.428;2022-11-20T00:25:25;18.03;;;14.20;;
55222;SDS011;41090;48.632;12.428;2022-11-20T00:27:50;17.43;;;13.80;;
55222;SDS011;41090;48.632;12.428;2022-11-20T00:30:15;19.07;;;14.73;;
55222;SDS011;41090;48.632;12.428;2022-11-20T00:32:41;17.60;;;14.43;;
55222;SDS011;41090;48.632;12.428;2022-11-20T00:35:06;17.73;;;13.90;;
55222;SDS011;41090;48.632;12.428;2022-11-20T00:37:31;17.40;;;14.40;;
55222;SDS011;41090;48.632;12.428;2022-11-20T00:39:57;18.30;;;14.40;;
55222;SDS011;41090;48.632;12.428;2022-11-20T00:42:22;16.37;;;12.67;;
55222;SDS011;41090;48.632;12.428;2022-11-20T00:44:47;16.90;;;13.73;;
55222;SDS011;41090;48.632;12.428;2022-11-20T00:47:14;17.33;;;13.60;;
55222;SDS011;41090;48.632;12.428;2022-11-20T00:49:40;15.67;;;13.30;;
55222;SDS011;41090;48.632;12.428;2022-11-20T00:52:05;18.33;;;13.83;;
55222;SDS011;41090;48.632;12.428;2022-11-20T00:54:30;19.30;;;14.77;;
55222;SDS011;41090;48.632;12.428;2022-11-20T00:56:55;19.33;;;14.77;;
55222;SDS011;41090;48.632;12.428;2022-11-20T00:59:21;18.17;;;14.37;;
55222;SDS011;41090;48.632;12.428;2022-11-20T01:01:46;20.77;;;16.03;;
55222;SDS011;41090;48.632;12.428;2022-11-20T01:04:11;18.43;;;15.20;;
55222;SDS011;41090;48.632;12.428;2022-11-20T01:06:37;18.83;;;15.03;;
55222;SDS011;41090;48.632;12.428;2022-11-20T01:09:04;20.10;;;14.70;;
55222;SDS011;41090;48.632;12.428;2022-11-20T01:11:31;22.63;;;16.27;;
55222;SDS011;41090;48.632;12.428;2022-11-20T01:13:58;22.23;;;16.30;;
55222;SDS011;41090;48.632;12.428;2022-11-20T01:16:28;20.37;;;15.27;;
55222;SDS011;41090;48.632;12.428;2022-11-20T01:18:54;20.00;;;15.43;;
55222;SDS011;41090;48.632;12.428;2022-11-20T01:21:23;20.50;;;15.10;;
55222;SDS011;41090;48.632;12.428;2022-11-20T01:23:50;22.10;;;16.37;;
55222;SDS011;41090;48.632;12.428;2022-11-20T01:26:26;19.27;;;14.63;;
55222;SDS011;41090;48.632;12.428;2022-11-20T01:28:52;22.07;;;16.17;;
55222;SDS011;41090;48.632;12.428;2022-11-20T01:31:24;22.03;;;16.30;;
55222;SDS011;41090;48.632;12.428;2022-11-20T01:33:52;23.27;;;16.53;;
55222;SDS011;41090;48.632;12.428;2022-11-20T01:36:18;22.70;;;15.30;;
55222;SDS011;41090;48.632;12.428;2022-11-20T01:38:44;21.07;;;15.10;;
55222;SDS011;41090;48.632;12.428;2022-11-20T01:41:10;18.20;;;14.70;;
55222;SDS011;41090;48.632;12.428;2022-11-20T01:43:36;20.33;;;16.40;;
55222;SDS011;41090;48.632;12.428;2022-11-20T01:46:14;18.33;;;14.83;;
55222;SDS011;41090;48.632;12.428;2022-11-20T01:49:00;18.27;;;14.17;;
55222;SDS011;41090;48.632;12.428;2022-11-20T01:51:32;16.97;;;14.20;;
55222;SDS011;41090;48.632;12.428;2022-11-20T01:53:59;15.90;;;13.80;;
55222;SDS011;41090;48.632;12.428;2022-11-20T01:56:26;16.23;;;13.50;;
55222;SDS011;41090;48.632;12.428;2022-11-20T01:58:53;14.53;;;12.43;;
55222;SDS011;41090;48.632;12.428;2022-11-20T02:01:20;17.50;;;13.37;;
55222;SDS011;41090;48.632;12.428;2022-11-20T02:03:45;17.00;;;13.93;;
55222;SDS011;41090;48.632;12.428;2022-11-20T02:08:36;16.73;;;13.67;;
55222;SDS011;41090;48.632;12.428;2022-11-20T02:11:02;16.87;;;14.17;;
55222;SDS011;41090;48.632;12.428;2022-11-20T02:13:27;17.30;;;14.20;;
55222;SDS011;41090;48.632;12.428;2022-11-20T02:16:12;16.50;;;13.47;;
55222;SDS011;41090;48.632;12.428;2022-11-20T02:18:39;16.13;;;13.10;;
55222;SDS011;41090;48.632;12.428;2022-11-20T02:21:24;16.83;;;12.90;;
55222;SDS011;41090;48.632;12.428;2022-11-20T02:24:04;16.07;;;12.87;;
55222;SDS011;41090;48.632;12.428;2022-11-20T02:26:31;17.20;;;13.77;;
55222;SDS011;41090;48.632;12.428;2022-11-20T02:28:58;16.27;;;13.50;;
55222;SDS011;41090;48.632;12.428;2022-11-20T02:31:23;16.10;;;13.37;;
55222;SDS011;41090;48.632;12.428;2022-11-20T02:33:54;15.20;;;12.60;;
55222;SDS011;41090;48.632;12.428;2022-11-20T02:36:19;15.00;;;12.87;;
55222;SDS011;41090;48.632;12.428;2022-11-20T02:38:44;14.77;;;12.40;;
55222;SDS011;41090;48.632;12.428;2022-11-20T02:41:10;14.43;;;12.23;;
55222;SDS011;41090;48.632;12.428;2022-11-20T02:43:35;14.50;;;12.83;;
55222;SDS011;41090;48.632;12.428;2022-11-20T02:46:00;15.90;;;12.93;;
55222;SDS011;41090;48.632;12.428;2022-11-20T02:48:25;17.80;;;13.67;;
55222;SDS011;41090;48.632;12.428;2022-11-20T02:50:51;16.23;;;13.40;;
55222;SDS011;41090;48.632;12.428;2022-11-20T02:53:16;16.23;;;13.20;;
55222;SDS011;41090;48.632;12.428;2022-11-20T02:55:41;17.13;;;13.83;;
55222;SDS011;41090;48.632;12.428;2022-11-20T02:58:07;16.33;;;13.23;;
55222;SDS011;41090;48.632;12.428;2022-11-20T03:00:32;17.03;;;13.87;;
55222;SDS011;41090;48.632;12.428;2022-11-20T03:02:57;16.40;;;13.73;;
55222;SDS011;41090;48.632;12.428;2022-11-20T03:05:22;20.17;;;14.00;;
55222;SDS011;41090;48.632;12.428;2022-11-20T03:07:48;17.23;;;13.60;;
55222;SDS011;41090;48.632;12.428;2022-11-20T03:10:13;14.87;;;12.80;;
55222;SDS011;41090;48.632;12.428;2022-11-20T03:12:38;15.10;;;12.00;;
55222;SDS011;41090;48.632;12.428;2022-11-20T03:15:04;14.03;;;11.83;;
55222;SDS011;41090;48.632;12.428;2022-11-20T03:17:29;15.23;;;12.40;;
55222;SDS011;41090;48.632;12.428;2022-11-20T03:19:55;14.57;;;12.13;;
55222;SDS011;41090;48.632;12.428;2022-11-20T03:22:21;15.20;;;12.80;;
55222;SDS011;41090;48.632;12.428;2022-11-20T03:24:47;13.70;;;11.83;;
55222;SDS011;41090;48.632;12.428;2022-11-20T03:27:12;14.87;;;11.77;;
55222;SDS011;41090;48.632;12.428;2022-11-20T03:29:37;14.03;;;11.47;;
55222;SDS011;41090;48.632;12.428;2022-11-20T03:34:34;15.53;;;12.80;;
55222;SDS011;41090;48.632;12.428;2022-11-20T03:36:59;14.00;;;12.50;;
55222;SDS011;41090;48.632;12.428;2022-11-20T03:39:24;15.00;;;12.77;;
55222;SDS011;41090;48.632;12.428;2022-11-20T03:41:49;15.17;;;12.83;;
55222;SDS011;41090;48.632;12.428;2022-11-20T03:44:15;13.77;;;12.07;;
55222;SDS011;41090;48.632;12.428;2022-11-20T03:46:40;15.20;;;12.77;;
55222;SDS011;41090;48.632;12.428;2022-11-20T03:49:05;15.00;;;12.10;;
55222;SDS011;41090;48.632;12.428;2022-11-20T03:51:31;14.93;;;12.43;;
55222;SDS011;41090;48.632;12.428;2022-11-20T03:53:58;15.10;;;12.33;;
55222;SDS011;41090;48.632;12.428;2022-11-20T03:56:28;16.40;;;14.27;;
55222;SDS011;41090;48.632;12.428;2022-11-20T03:58:53;15.73;;;13.40;;
55222;SDS011;41090;48.632;12.428;2022-11-20T04:01:23;16.43;;;13.50;;
55222;SDS011;41090;48.632;12.428;2022-11-20T04:03:49;16.83;;;14.20;;
55222;SDS011;41090;48.632;12.428;2022-11-20T04:06:15;15.20;;;13.00;;
55222;SDS011;41090;48.632;12.428;2022-11-20T04:08:41;15.97;;;13.83;;
55222;SDS011;41090;48.632;12.428;2022-11-20T04:11:14;16.73;;;13.73;;
55222;SDS011;41090;48.632;12.428;2022-11-20T04:13:39;17.23;;;14.17;;
55222;SDS011;41090;48.632;12.428;2022-11-20T04:16:05;17.87;;;14.37;;
55222;SDS011;41090;48.632;12.428;2022-11-20T04:18:31;15.77;;;13.10;;
55222;SDS011;41090;48.632;12.428;2022-11-20T04:20:56;16.37;;;14.53;;
55222;SDS011;41090;48.632;12.428;2022-11-20T04:23:22;18.27;;;14.97;;
55222;SDS011;41090;48.632;12.428;2022-11-20T04:25:47;19.57;;;15.27;;
55222;SDS011;41090;48.632;12.428;2022-11-20T04:28:12;18.37;;;15.27;;
55222;SDS011;41090;48.632;12.428;2022-11-20T04:30:37;19.33;;;16.13;;
55222;SDS011;41090;48.632;12.428;2022-11-20T04:33:03;18.97;;;15.83;;
55222;SDS011;41090;48.632;12.428;2022-11-20T04:35:28;18.73;;;15.43;;
55222;SDS011;41090;48.632;12.428;2022-11-20T04:37:53;20.10;;;15.77;;
55222;SDS011;41090;48.632;12.428;2022-11-20T04:40:18;19.30;;;14.67;;
55222;SDS011;41090;48.632;12.428;2022-11-20T04:42:44;18.17;;;14.23;;
55222;SDS011;41090;48.632;12.428;2022-11-20T04:45:09;17.73;;;15.00;;
55222;SDS011;41090;48.632;12.428;2022-11-20T04:47:34;17.00;;;13.37;;
55222;SDS011;41090;48.632;12.428;2022-11-20T04:49:59;16.57;;;14.17;;
55222;SDS011;41090;48.632;12.428;2022-11-20T04:52:25;15.23;;;13.63;;
55222;SDS011;41090;48.632;12.428;2022-11-20T04:54:50;15.57;;;13.03;;
55222;SDS011;41090;48.632;12.428;2022-11-20T04:57:17;16.60;;;14.50;;
55222;SDS011;41090;48.632;12.428;2022-11-20T04:59:43;16.17;;;13.67;;
55222;SDS011;41090;48.632;12.428;2022-11-20T05:02:08;17.87;;;14.30;;
55222;SDS011;41090;48.632;12.428;2022-11-20T05:04:33;25.17;;;19.50;;
55222;SDS011;41090;48.632;12.428;2022-11-20T05:06:58;25.20;;;18.90;;
55222;SDS011;41090;48.632;12.428;2022-11-20T05:09:23;20.90;;;16.50;;
55222;SDS011;41090;48.632;12.428;2022-11-20T05:11:49;17.53;;;14.30;;
55222;SDS011;41090;48.632;12.428;2022-11-20T05:14:14;15.87;;;12.47;;
55222;SDS011;41090;48.632;12.428;2022-11-20T05:16:39;18.17;;;13.77;;
55222;SDS011;41090;48.632;12.428;2022-11-20T05:19:04;16.93;;;14.83;;
55222;SDS011;41090;48.632;12.428;2022-11-20T05:21:32;16.07;;;13.40;;
55222;SDS011;41090;48.632;12.428;2022-11-20T05:23:57;16.27;;;13.30;;
55222;SDS011;41090;48.632;12.428;2022-11-20T05:26:22;14.93;;;13.30;;
55222;SDS011;41090;48.632;12.428;2022-11-20T05:28:48;19.33;;;15.77;;
55222;SDS011;41090;48.632;12.428;2022-11-20T05:31:18;15.93;;;13.50;;
55222;SDS011;41090;48.632;12.428;2022-11-20T05:33:44;18.10;;;13.93;;
55222;SDS011;41090;48.632;12.428;2022-11-20T05:36:09;15.77;;;12.97;;
55222;SDS011;41090;48.632;12.428;2022-11-20T05:38:35;20.43;;;16.53;;
55222;SDS011;41090;48.632;12.428;2022-11-20T05:41:06;18.17;;;15.17;;
55222;SDS011;41090;48.632;12.428;2022-11-20T05:43:33;19.90;;;16.33;;
55222;SDS011;41090;48.632;12.428;2022-11-20T05:45:59;17.43;;;15.43;;
55222;SDS011;41090;48.632;12.428;2022-11-20T05:48:24;16.80;;;14.53;;
55222;SDS011;41090;48.632;12.428;2022-11-20T05:50:49;18.60;;;15.30;;
55222;SDS011;41090;48.632;12.428;2022-11-20T05:53:15;17.27;;;13.87;;
55222;SDS011;41090;48.632;12.428;2022-11-20T05:55:40;18.07;;;15.10;;
55222;SDS011;41090;48.632;12.428;2022-11-20T05:58:05;17.63;;;14.27;;
55222;SDS011;41090;48.632;12.428;2022-11-20T06:00:30;18.17;;;14.33;;
55222;SDS011;41090;48.632;12.428;2022-11-20T06:02:56;17.97;;;14.50;;
55222;SDS011;41090;48.632;12.428;2022-11-20T06:05:21;20.80;;;15.47;;
55222;SDS011;41090;48.632;12.428;2022-11-20T06:07:46;19.67;;;15.30;;
55222;SDS011;41090;48.632;12.428;2022-11-20T06:10:12;19.30;;;14.73;;
55222;SDS011;41090;48.632;12.428;2022-11-20T06:12:37;21.23;;;15.40;;
55222;SDS011;41090;48.632;12.428;2022-11-20T06:15:03;19.53;;;14.87;;
55222;SDS011;41090;48.632;12.428;2022-11-20T06:17:28;19.13;;;15.13;;
55222;SDS011;41090;48.632;12.428;2022-11-20T06:19:53;19.20;;;15.33;;
55222;SDS011;41090;48.632;12.428;2022-11-20T06:22:19;19.70;;;15.13;;
55222;SDS011;41090;48.632;12.428;2022-11-20T06:24:44;19.60;;;15.83;;
55222;SDS011;41090;48.632;12.428;2022-11-20T06:27:09;18.47;;;15.00;;
55222;SDS011;41090;48.632;12.428;2022-11-20T06:29:34;18.10;;;14.30;;
55222;SDS011;41090;48.632;12.428;2022-11-20T06:32:00;23.30;;;16.20;;
55222;SDS011;41090;48.632;12.428;2022-11-20T06:34:25;20.67;;;16.40;;
55222;SDS011;41090;48.632;12.428;2022-11-20T06:36:50;18.57;;;14.40;;
55222;SDS011;41090;48.632;12.428;2022-11-20T06:39:15;17.87;;;14.60;;
55222;SDS011;41090;48.632;12.428;2022-11-20T06:41:43;19.87;;;15.90;;
55222;SDS011;41090;48.632;12.428;2022-11-20T06:44:08;17.57;;;14.73;;
55222;SDS011;41090;48.632;12.428;2022-11-20T06:46:33;17.47;;;14.60;;
55222;SDS011;41090;48.632;12.428;2022-11-20T06:48:58;13.60;;;11.30;;
55222;SDS011;41090;48.632;12.428;2022-11-20T06:51:24;13.67;;;11.13;;
55222;SDS011;41090;48.632;12.428;2022-11-20T06:53:50;11.87;;;10.47;;
55222;SDS011;41090;48.632;12.428;2022-11-20T06:56:15;12.93;;;10.30;;
55222;SDS011;41090;48.632;12.428;2022-11-20T06:58:40;10.77;;;9.53;;
55222;SDS011;41090;48.632;12.428;2022-11-20T07:01:10;11.40;;;9.93;;
55222;SDS011;41090;48.632;12.428;2022-11-20T07:03:35;10.70;;;9.60;;
55222;SDS011;41090;48.632;12.428;2022-11-20T07:06:01;10.67;;;8.83;;
55222;SDS011;41090;48.632;12.428;2022-11-20T07:08:27;9.97;;;8.90;;
55222;SDS011;41090;48.632;12.428;2022-11-20T07:10:52;9.33;;;8.33;;
55222;SDS011;41090;48.632;12.428;2022-11-20T07:13:17;7.10;;;6.40;;
55222;SDS011;41090;48.632;12.428;2022-11-20T07:15:43;6.73;;;5.57;;
55222;SDS011;41090;48.632;12.428;2022-11-20T07:18:08;6.50;;;5.83;;
55222;SDS011;41090;48.632;12.428;2022-11-20T07:20:39;6.17;;;5.43;;
55222;SDS011;41090;48.632;12.428;2022-11-20T07:23:05;6.87;;;6.00;;
55222;SDS011;41090;48.632;12.428;2022-11-20T07:25:30;6.13;;;5.53;;
55222;SDS011;41090;48.632;12.428;2022-11-20T07:27:56;7.47;;;5.50;;
55222;SDS011;41090;48.632;12.428;2022-11-20T07:30:22;5.57;;;5.00;;
55222;SDS011;41090;48.632;12.428;2022-11-20T07:32:47;5.83;;;5.20;;
55222;SDS011;41090;48.632;12.428;2022-11-20T07:35:15;5.77;;;5.27;;
55222;SDS011;41090;48.632;12.428;2022-11-20T07:37:41;6.60;;;5.60;;
55222;SDS011;41090;48.632;12.428;2022-11-20T07:40:06;6.57;;;4.57;;
55222;SDS011;41090;48.632;12.428;2022-11-20T07:42:31;5.60;;;5.10;;
55222;SDS011;41090;48.632;12.428;2022-11-20T07:44:57;5.83;;;5.30;;
55222;SDS011;41090;48.632;12.428;2022-11-20T07:47:22;5.83;;;5.33;;
55222;SDS011;41090;48.632;12.428;2022-11-20T07:49:47;5.50;;;5.00;;
55222;SDS011;41090;48.632;12.428;2022-11-20T07:52:12;4.80;;;4.30;;
55222;SDS011;41090;48.632;12.428;2022-11-20T07:54:37;5.30;;;4.80;;
55222;SDS011;41090;48.632;12.428;2022-11-20T07:57:03;6.37;;;5.50;;
55222;SDS011;41090;48.632;12.428;2022-11-20T07:59:28;5.30;;;4.60;;
55222;SDS011;41090;48.632;12.428;2022-11-20T08:01:53;5.20;;;4.70;;
55222;SDS011;41090;48.632;12.428;2022-11-20T08:04:18;6.63;;;5.60;;
55222;SDS011;41090;48.632;12.428;2022-11-20T08:06:44;5.03;;;4.50;;
55222;SDS011;41090;48.632;12.428;2022-11-20T08:09:09;6.23;;;5.33;;
55222;SDS011;41090;48.632;12.428;2022-11-20T08:11:34;5.63;;;4.87;;
55222;SDS011;41090;48.632;12.428;2022-11-20T08:14:18;6.27;;;4.90;;
55222;SDS011;41090;48.632;12.428;2022-11-20T08:16:45;4.70;;;4.30;;
55222;SDS011;41090;48.632;12.428;2022-11-20T08:19:11;7.50;;;5.60;;
55222;SDS011;41090;48.632;12.428;2022-11-20T08:21:36;10.07;;;8.70;;
55222;SDS011;41090;48.632;12.428;2022-11-20T08:24:01;6.37;;;5.77;;
55222;SDS011;41090;48.632;12.428;2022-11-20T08:26:27;8.20;;;6.83;;
55222;SDS011;41090;48.632;12.428;2022-11-20T08:28:53;7.57;;;6.87;;
55222;SDS011;41090;48.632;12.428;2022-11-20T08:31:19;6.00;;;5.40;;
55222;SDS011;41090;48.632;12.428;2022-11-20T08:33:44;6.43;;;5.77;;
55222;SDS011;41090;48.632;12.428;2022-11-20T08:36:10;5.33;;;4.83;;
55222;SDS011;41090;48.632;12.428;2022-11-20T08:38:35;5.07;;;4.43;;
55222;SDS011;41090;48.632;12.428;2022-11-20T08:41:01;4.73;;;4.10;;
55222;SDS011;41090;48.632;12.428;2022-11-20T08:43:45;4.43;;;4.03;;
55222;SDS011;41090;48.632;12.428;2022-11-20T08:46:10;5.57;;;5.07;;
55222;SDS011;41090;48.632;12.428;2022-11-20T08:48:35;4.20;;;3.67;;
55222;SDS011;41090;48.632;12.428;2022-11-20T08:51:01;4.37;;;3.73;;
55222;SDS011;41090;48.632;12.428;2022-11-20T08:53:26;3.60;;;3.30;;
55222;SDS011;41090;48.632;12.428;2022-11-20T08:55:52;4.10;;;3.70;;
55222;SDS011;41090;48.632;12.428;2022-11-20T08:58:17;3.70;;;3.40;;
55222;SDS011;41090;48.632;12.428;2022-11-20T09:00:42;3.63;;;3.33;;
55222;SDS011;41090;48.632;12.428;2022-11-20T09:03:08;4.20;;;3.80;;
55222;SDS011;41090;48.632;12.428;2022-11-20T09:05:35;3.80;;;3.50;;
55222;SDS011;41090;48.632;12.428;2022-11-20T09:08:00;3.90;;;3.60;;
55222;SDS011;41090;48.632;12.428;2022-11-20T09:10:26;4.10;;;3.70;;
55222;SDS011;41090;48.632;12.428;2022-11-20T09:12:52;4.50;;;3.50;;
55222;SDS011;41090;48.632;12.428;2022-11-20T09:15:20;4.40;;;4.00;;
55222;SDS011;41090;48.632;12.428;2022-11-20T09:17:57;4.57;;;4.17;;
55222;SDS011;41090;48.632;12.428;2022-11-20T09:20:24;3.80;;;3.50;;
55222;SDS011;41090;48.632;12.428;2022-11-20T09:22:49;5.57;;;4.50;;
55222;SDS011;41090;48.632;12.428;2022-11-20T09:25:15;4.73;;;4.20;;
55222;SDS011;41090;48.632;12.428;2022-11-20T09:27:40;4.30;;;4.00;;
55222;SDS011;41090;48.632;12.428;2022-11-20T09:30:11;4.63;;;3.90;;
55222;SDS011;41090;48.632;12.428;2022-11-20T09:32:38;4.37;;;3.97;;
55222;SDS011;41090;48.632;12.428;2022-11-20T09:35:03;3.90;;;3.50;;
55222;SDS011;41090;48.632;12.428;2022-11-20T09:37:29;3.90;;;3.47;;
55222;SDS011;41090;48.632;12.428;2022-11-20T09:39:54;4.77;;;4.30;;
55222;SDS011;41090;48.632;12.428;2022-11-20T09:45:20;4.47;;;4.03;;
55222;SDS011;41090;48.632;12.428;2022-11-20T09:47:52;3.70;;;3.40;;
55222;SDS011;41090;48.632;12.428;2022-11-20T09:50:31;4.23;;;3.83;;
55222;SDS011;41090;48.632;12.428;2022-11-20T09:55:49;3.90;;;3.60;;
55222;SDS011;41090;48.632;12.428;2022-11-20T09:58:17;4.50;;;4.10;;
55222;SDS011;41090;48.632;12.428;2022-11-20T10:00:45;4.60;;;4.20;;
55222;SDS011;41090;48.632;12.428;2022-11-20T10:03:16;5.00;;;4.37;;
55222;SDS011;41090;48.632;12.428;2022-11-20T10:05:45;4.33;;;3.93;;
55222;SDS011;41090;48.632;12.428;2022-11-20T10:10:43;4.90;;;4.50;;
55222;SDS011;41090;48.632;12.428;2022-11-20T10:18:39;5.43;;;4.73;;
55222;SDS011;41090;48.632;12.428;2022-11-20T10:28:30;7.27;;;3.80;;
55222;SDS011;41090;48.632;12.428;2022-11-20T10:31:00;4.17;;;3.77;;
55222;SDS011;41090;48.632;12.428;2022-11-20T10:33:29;4.90;;;3.90;;
55222;SDS011;41090;48.632;12.428;2022-11-20T10:38:35;3.70;;;3.30;;
55222;SDS011;41090;48.632;12.428;2022-11-20T10:41:02;3.73;;;3.40;;
55222;SDS011;41090;48.632;12.428;2022-11-20T10:43:46;5.70;;;4.23;;
55222;SDS011;41090;48.632;12.428;2022-11-20T10:46:22;10.90;;;8.50;;
55222;SDS011;41090;48.632;12.428;2022-11-20T10:48:47;7.73;;;6.97;;
55222;SDS011;41090;48.632;12.428;2022-11-20T10:54:15;5.07;;;4.67;;
55222;SDS011;41090;48.632;12.428;2022-11-20T10:56:56;4.40;;;4.00;;
55222;SDS011;41090;48.632;12.428;2022-11-20T11:02:15;4.37;;;3.97;;
55222;SDS011;41090;48.632;12.428;2022-11-20T11:04:45;4.30;;;3.57;;
55222;SDS011;41090;48.632;12.428;2022-11-20T11:07:19;4.00;;;3.60;;
55222;SDS011;41090;48.632;12.428;2022-11-20T11:09:49;3.90;;;3.57;;
55222;SDS011;41090;48.632;12.428;2022-11-20T11:12:15;4.10;;;3.47;;
55222;SDS011;41090;48.632;12.428;2022-11-20T11:17:17;3.37;;;3.13;;
55222;SDS011;41090;48.632;12.428;2022-11-20T11:19:44;4.13;;;3.73;;
55222;SDS011;41090;48.632;12.428;2022-11-20T11:22:11;3.67;;;3.33;;
55222;SDS011;41090;48.632;12.428;2022-11-20T11:24:43;4.03;;;3.63;;
55222;SDS011;41090;48.632;12.428;2022-11-20T11:27:16;3.70;;;3.20;;
55222;SDS011;41090;48.632;12.428;2022-11-20T11:29:42;4.10;;;3.50;;
55222;SDS011;41090;48.632;12.428;2022-11-20T11:32:10;5.23;;;3.77;;
55222;SDS011;41090;48.632;12.428;2022-11-20T11:34:36;4.80;;;4.40;;
55222;SDS011;41090;48.632;12.428;2022-11-20T11:37:01;7.00;;;3.90;;
55222;SDS011;41090;48.632;12.428;2022-11-20T11:39:28;3.50;;;3.20;;
55222;SDS011;41090;48.632;12.428;2022-11-20T11:41:54;4.20;;;3.80;;
55222;SDS011;41090;48.632;12.428;2022-11-20T11:44:20;4.63;;;3.40;;
55222;SDS011;41090;48.632;12.428;2022-11-20T11:52:28;119.53;;;68.90;;
55222;SDS011;41090;48.632;12.428;2022-11-20T11:54:55;42.93;;;34.30;;
55222;SDS011;41090;48.632;12.428;2022-11-20T12:00:02;7.23;;;6.10;;
55222;SDS011;41090;48.632;12.428;2022-11-20T12:15:33;13.97;;;9.53;;
55222;SDS011;41090;48.632;12.428;2022-11-20T12:17:58;20.10;;;13.87;;
55222;SDS011;41090;48.632;12.428;2022-11-20T12:20:25;5.30;;;4.40;;
55222;SDS011;41090;48.632;12.428;2022-11-20T12:25:20;4.87;;;4.37;;
55222;SDS011;41090;48.632;12.428;2022-11-20T12:30:31;3.60;;;3.30;;
55222;SDS011;41090;48.632;12.428;2022-11-20T12:48:29;3.17;;;2.63;;
55222;SDS011;41090;48.632;12.428;2022-11-20T12:51:09;3.27;;;2.80;;
55222;SDS011;41090;48.632;12.428;2022-11-20T12:56:26;2.87;;;2.67;;
55222;SDS011;41090;48.632;12.428;2022-11-20T13:01:34;2.30;;;2.10;;
55222;SDS011;41090;48.632;12.428;2022-11-20T13:04:16;3.03;;;2.20;;
55222;SDS011;41090;48.632;12.428;2022-11-20T13:06:44;2.83;;;2.47;;
55222;SDS011;41090;48.632;12.428;2022-11-20T13:09:10;2.73;;;2.53;;
55222;SDS011;41090;48.632;12.428;2022-11-20T13:11:42;2.50;;;2.30;;
55222;SDS011;41090;48.632;12.428;2022-11-20T13:16:50;5.10;;;3.27;;
55222;SDS011;41090;48.632;12.428;2022-11-20T13:19:17;2.87;;;2.67;;
55222;SDS011;41090;48.632;12.428;2022-11-20T13:21:46;3.23;;;2.93;;
55222;SDS011;41090;48.632;12.428;2022-11-20T13:27:34;3.10;;;2.90;;
55222;SDS011;41090;48.632;12.428;2022-11-20T13:29:35;5.73;;;3.27;;
55222;SDS011;41090;48.632;12.428;2022-11-20T13:32:34;5.70;;;2.67;;
55222;SDS011;41090;48.632;12.428;2022-11-20T13:34:58;4.57;;;3.20;;
55222;SDS011;41090;48.632;12.428;2022-11-20T13:39:52;3.33;;;3.03;;
55222;SDS011;41090;48.632;12.428;2022-11-20T13:42:23;5.73;;;5.13;;
55222;SDS011;41090;48.632;12.428;2022-11-20T13:45:01;3.73;;;3.10;;
55222;SDS011;41090;48.632;12.428;2022-11-20T13:47:27;3.80;;;3.50;;
55222;SDS011;41090;48.632;12.428;2022-11-20T13:49:53;4.13;;;3.73;;
55222;SDS011;41090;48.632;12.428;2022-11-20T14:00:11;2.70;;;2.50;;
55222;SDS011;41090;48.632;12.428;2022-11-20T14:02:37;2.40;;;2.20;;
55222;SDS011;41090;48.632;12.428;2022-11-20T14:05:02;2.40;;;2.20;;
55222;SDS011;41090;48.632;12.428;2022-11-20T14:07:35;2.50;;;2.30;;
55222;SDS011;41090;48.632;12.428;2022-11-20T14:10:01;3.50;;;3.07;;
55222;SDS011;41090;48.632;12.428;2022-11-20T14:12:28;3.60;;;2.83;;
55222;SDS011;41090;48.632;12.428;2022-11-20T14:14:54;3.00;;;2.80;;
55222;SDS011;41090;48.632;12.428;2022-11-20T14:17:20;2.87;;;2.60;;
55222;SDS011;41090;48.632;12.428;2022-11-20T14:19:46;3.60;;;3.30;;
55222;SDS011;41090;48.632;12.428;2022-11-20T14:22:23;4.00;;;3.37;;
55222;SDS011;41090;48.632;12.428;2022-11-20T14:25:01;4.20;;;3.80;;
55222;SDS011;41090;48.632;12.428;2022-11-20T14:27:26;5.27;;;4.60;;
55222;SDS011;41090;48.632;12.428;2022-11-20T14:29:53;12.13;;;8.20;;
55222;SDS011;41090;48.632;12.428;2022-11-20T14:34:47;3.60;;;3.30;;
55222;SDS011;41090;48.632;12.428;2022-11-20T14:37:20;3.03;;;2.83;;
55222;SDS011;41090;48.632;12.428;2022-11-20T14:39:51;2.73;;;2.53;;
55222;SDS011;41090;48.632;12.428;2022-11-20T14:42:17;3.50;;;3.20;;
55222;SDS011;41090;48.632;12.428;2022-11-20T14:44:43;2.87;;;2.57;;
55222;SDS011;41090;48.632;12.428;2022-11-20T14:47:09;3.73;;;3.40;;
55222;SDS011;41090;48.632;12.428;2022-11-20T14:49:35;4.17;;;3.77;;
55222;SDS011;41090;48.632;12.428;2022-11-20T14:52:12;3.73;;;3.43;;
55222;SDS011;41090;48.632;12.428;2022-11-20T14:54:45;3.57;;;3.27;;
55222;SDS011;41090;48.632;12.428;2022-11-20T14:57:33;4.00;;;3.70;;
55222;SDS011;41090;48.632;12.428;2022-11-20T15:00:07;3.57;;;3.27;;
55222;SDS011;41090;48.632;12.428;2022-11-20T15:02:33;4.17;;;3.87;;
55222;SDS011;41090;48.632;12.428;2022-11-20T15:04:59;3.93;;;2.80;;
55222;SDS011;41090;48.632;12.428;2022-11-20T15:07:28;4.20;;;3.80;;
55222;SDS011;41090;48.632;12.428;2022-11-20T15:10:12;4.17;;;3.30;;
55222;SDS011;41090;48.632;12.428;2022-11-20T15:12:38;7.93;;;6.77;;
55222;SDS011;41090;48.632;12.428;2022-11-20T15:15:05;5.07;;;3.50;;
55222;SDS011;41090;48.632;12.428;2022-11-20T15:17:31;7.67;;;6.30;;
55222;SDS011;41090;48.632;12.428;2022-11-20T15:19:56;3.90;;;3.07;;
55222;SDS011;41090;48.632;12.428;2022-11-20T15:22:21;4.57;;;4.17;;
55222;SDS011;41090;48.632;12.428;2022-11-20T15:24:47;3.70;;;3.40;;
55222;SDS011;41090;48.632;12.428;2022-11-20T15:27:12;4.40;;;4.00;;
55222;SDS011;41090;48.632;12.428;2022-11-20T15:29:37;3.10;;;2.80;;
55222;SDS011;41090;48.632;12.428;2022-11-20T15:32:03;4.10;;;3.60;;
55222;SDS011;41090;48.632;12.428;2022-11-20T15:34:28;10.50;;;7.67;;
55222;SDS011;41090;48.632;12.428;2022-11-20T15:36:53;6.80;;;6.00;;
55222;SDS011;41090;48.632;12.428;2022-11-20T15:39:19;8.80;;;6.07;;
55222;SDS011;41090;48.632;12.428;2022-11-20T15:41:45;3.67;;;2.50;;
55222;SDS011;41090;48.632;12.428;2022-11-20T15:44:11;3.53;;;3.23;;
55222;SDS011;41090;48.632;12.428;2022-11-20T15:46:39;3.77;;;3.17;;
55222;SDS011;41090;48.632;12.428;2022-11-20T15:49:10;3.17;;;2.87;;
55222;SDS011;41090;48.632;12.428;2022-11-20T15:51:37;6.83;;;3.30;;
55222;SDS011;41090;48.632;12.428;2022-11-20T15:54:24;4.10;;;3.40;;
55222;SDS011;41090;48.632;12.428;2022-11-20T15:56:48;3.70;;;2.97;;
55222;SDS011;41090;48.632;12.428;2022-11-20T15:59:14;4.33;;;3.00;;
55222;SDS011;41090;48.632;12.428;2022-11-20T16:01:40;3.93;;;2.90;;
55222;SDS011;41090;48.632;12.428;2022-11-20T16:04:09;3.83;;;2.83;;